Time;durP1;ratioP1;P1;durP2;ratioP2;P2;SDS_P1;SDS_P2;PMS_P1;PMS_P2;Temp;Humidity;BMP_temperature;BMP_pressure;BME280_temperature;BME280_humidity;BME280_pressure;Samples;Min_cycle;Max_cycle;Signal;HPM_P1;HPM_P2
2022/07/01 00:00:42;;;;;;;6.38;3.05;;;;;;;24.22;63.75;100507.72;2095469;28;20561;-74
2022/07/01 00:02:05;;;;;;;6.07;2.10;;;;;;;24.25;63.42;100520.19;2093552;28;20064;-74
2022/07/01 00:03:28;;;;;;;14.65;3.83;;;;;;;24.21;64.03;100506.84;2093761;28;20051;-74
2022/07/01 00:04:49;;;;;;;6.35;2.58;;;;;;;24.17;64.27;100502.50;2093500;28;20398;-74
2022/07/01 00:06:30;;;;;;;5.40;2.00;;;;;;;24.13;64.78;100497.31;2095814;28;20101;-75
2022/07/01 00:07:53;;;;;;;7.07;2.00;;;;;;;24.11;64.99;100507.28;2096350;28;20045;-74
2022/07/01 00:09:15;;;;;;;9.38;2.28;;;;;;;24.13;65.23;100503.59;2086246;28;20084;-74
2022/07/01 00:10:38;;;;;;;6.28;2.05;;;;;;;24.17;64.89;100502.50;2101774;28;20073;-74
2022/07/01 00:11:59;;;;;;;7.55;2.40;;;;;;;24.19;64.93;100513.25;2102068;28;20451;-75
2022/07/01 00:13:21;;;;;;;7.70;2.80;;;;;;;24.23;64.72;100514.84;2093363;28;20055;-74
2022/07/01 00:14:43;;;;;;;7.45;2.63;;;;;;;24.25;65.00;100506.72;2101747;28;20052;-74
2022/07/01 00:16:07;;;;;;;9.85;2.70;;;;;;;24.27;65.16;100515.63;2101955;28;20201;-74
2022/07/01 00:17:29;;;;;;;7.85;2.50;;;;;;;24.30;64.94;100510.06;2102331;28;20693;-74
2022/07/01 00:18:52;;;;;;;6.35;2.35;;;;;;;24.35;64.99;100498.13;2103296;28;20155;-73
2022/07/01 00:20:14;;;;;;;5.38;2.25;;;;;;;24.38;64.79;100506.09;2103368;28;20102;-74
2022/07/01 00:21:36;;;;;;;4.97;2.28;;;;;;;24.40;64.64;100520.41;2103149;28;20497;-74
2022/07/01 00:22:59;;;;;;;6.20;2.38;;;;;;;24.38;64.79;100506.09;2103263;28;20044;-74
2022/07/01 00:24:20;;;;;;;6.72;2.40;;;;;;;24.30;65.28;100513.66;2103406;28;20131;-74
2022/07/01 00:25:43;;;;;;;6.88;3.15;;;;;;;24.30;65.20;100510.06;2102224;28;20051;-74
2022/07/01 00:27:05;;;;;;;6.60;2.42;;;;;;;24.29;65.26;100521.81;2092903;28;20322;-74
2022/07/01 00:28:27;;;;;;;9.15;2.78;;;;;;;24.28;65.74;100512.84;2092787;28;20037;-74
2022/07/01 00:29:49;;;;;;;7.65;2.70;;;;;;;24.27;65.90;100523.72;2100446;28;20143;-74
2022/07/01 00:31:13;;;;;;;10.80;2.85;;;;;;;24.30;65.83;100524.44;2096377;28;20165;-74
2022/07/01 00:32:36;;;;;;;3.28;2.30;;;;;;;24.29;65.95;100525.38;2103530;28;20040;-74
2022/07/01 00:33:59;;;;;;;8.13;2.22;;;;;;;24.30;66.12;100528.97;2094558;28;20056;-74
2022/07/01 00:35:22;;;;;;;9.48;2.95;;;;;;;24.31;66.28;100528.91;2094851;28;20036;-74
2022/07/01 00:36:44;;;;;;;8.63;2.50;;;;;;;24.35;66.24;100535.03;2096924;28;20074;-74
2022/07/01 00:38:07;;;;;;;4.97;2.38;;;;;;;24.34;65.95;100523.38;2102332;28;20051;-74
2022/07/01 00:39:31;;;;;;;6.63;2.83;;;;;;;24.34;66.03;100517.97;2104889;28;20040;-74
2022/07/01 00:40:54;;;;;;;7.78;2.70;;;;;;;24.35;66.20;100525.09;2111741;28;20055;-74
2022/07/01 00:42:17;;;;;;;11.13;2.60;;;;;;;24.36;66.07;100524.16;2102591;28;20721;-74
2022/07/01 00:43:39;;;;;;;7.28;3.03;;;;;;;24.38;65.69;100518.69;2094912;28;20045;-74
2022/07/01 00:45:02;;;;;;;11.93;2.67;;;;;;;24.34;65.98;100517.97;2100950;28;20060;-73
2022/07/01 00:46:26;;;;;;;8.43;2.17;;;;;;;24.28;66.01;100523.66;2102142;28;20457;-74
2022/07/01 00:47:49;;;;;;;10.65;3.92;;;;;;;24.27;66.41;100529.09;2102879;28;20276;-75
2022/07/01 00:49:11;;;;;;;8.13;2.50;;;;;;;24.30;66.18;100520.84;2106102;28;20571;-75
2022/07/01 00:50:34;;;;;;;8.15;2.25;;;;;;;24.27;66.10;100524.59;2103330;28;20143;-75
2022/07/01 00:51:57;;;;;;;7.25;2.03;;;;;;;24.28;66.19;100529.03;2103268;28;20520;-74
2022/07/01 00:53:21;;;;;;;6.22;2.00;;;;;;;24.28;66.03;100523.66;2102668;28;20040;-74
2022/07/01 00:54:43;;;;;;;14.45;3.67;;;;;;;24.31;66.12;100519.91;2102984;28;20053;-74
2022/07/01 00:56:06;;;;;;;5.60;2.75;;;;;;;24.32;65.96;100522.56;2101549;28;20067;-74
2022/07/01 00:57:31;;;;;;;5.03;2.20;;;;;;;24.27;66.16;100523.72;2102536;28;20071;-74
2022/07/01 00:58:53;;;;;;;5.78;2.70;;;;;;;24.28;66.30;100526.34;2102347;28;20073;-74
2022/07/01 01:00:18;;;;;;;5.25;2.00;;;;;;;24.32;66.27;100527.06;2102320;28;20071;-74
2022/07/01 01:01:42;;;;;;;7.93;2.55;;;;;;;24.37;66.00;100528.63;2094943;28;20055;-74
2022/07/01 01:03:05;;;;;;;6.25;1.90;;;;;;;24.38;66.27;100519.56;2094900;28;20064;-74
2022/07/01 01:04:27;;;;;;;6.28;2.30;;;;;;;24.39;66.24;100528.56;2086763;28;20152;-74
2022/07/01 01:05:50;;;;;;;6.22;2.60;;;;;;;24.30;66.15;100539.75;2094929;28;20036;-74
2022/07/01 01:07:13;;;;;;;11.32;2.40;;;;;;;24.27;66.39;100537.19;2094953;28;20052;-74
2022/07/01 01:08:37;;;;;;;6.80;2.33;;;;;;;24.25;66.73;100526.47;2094928;28;20068;-74
2022/07/01 01:10:01;;;;;;;4.07;1.80;;;;;;;24.21;66.58;100527.56;2094916;28;20113;-74
2022/07/01 01:11:24;;;;;;;9.15;2.42;;;;;;;24.19;67.05;100524.94;2094829;28;20091;-74
2022/07/01 01:12:47;;;;;;;6.15;2.15;;;;;;;24.24;66.87;100519.31;2095104;28;20052;-74
2022/07/01 01:14:09;;;;;;;6.40;2.38;;;;;;;24.26;66.39;100525.53;2094860;28;20082;-74
2022/07/01 01:15:31;;;;;;;4.20;2.40;;;;;;;24.22;66.64;100522.06;2094566;28;20427;-74
2022/07/01 01:16:54;;;;;;;6.72;2.50;;;;;;;24.28;66.56;100528.16;2103214;28;20072;-73
2022/07/01 01:18:17;;;;;;;5.47;2.35;;;;;;;24.29;66.09;100528.06;2097498;28;20414;-74
2022/07/01 01:19:39;;;;;;;5.55;2.70;;;;;;;24.31;66.08;100534.28;2094639;28;20665;-74
2022/07/01 01:21:02;;;;;;;11.30;2.42;;;;;;;24.32;65.91;100525.25;2099902;28;20048;-74
2022/07/01 01:22:24;;;;;;;5.82;1.77;;;;;;;24.30;65.98;100523.56;2103011;28;20367;-74
2022/07/01 01:23:47;;;;;;;7.15;2.20;;;;;;;24.28;66.30;100528.16;2094580;28;20052;-74
2022/07/01 01:25:10;;;;;;;7.22;2.63;;;;;;;24.26;66.47;100533.63;2100517;28;20040;-73
2022/07/01 01:26:31;;;;;;;4.15;2.15;;;;;;;24.27;66.54;100527.28;2102867;28;20051;-73
2022/07/01 01:27:55;;;;;;;10.20;2.67;;;;;;;24.27;66.44;100529.09;2102608;28;20140;-73
2022/07/01 01:29:17;;;;;;;8.07;2.30;;;;;;;24.31;66.31;100534.28;2103235;28;20044;-74
2022/07/01 01:30:39;;;;;;;6.10;2.63;;;;;;;24.33;66.08;100528.84;2101334;28;20074;-74
2022/07/01 01:32:01;;;;;;;4.82;2.15;;;;;;;24.29;66.39;100528.06;2105447;28;20497;-74
2022/07/01 01:33:23;;;;;;;8.13;2.72;;;;;;;24.26;66.68;100528.22;2103143;28;20587;-73
2022/07/01 01:34:45;;;;;;;5.70;2.35;;;;;;;24.28;66.60;100533.56;2102647;28;20571;-75
2022/07/01 01:36:08;;;;;;;5.15;2.05;;;;;;;24.31;66.50;100518.09;2094182;28;20076;-73
2022/07/01 01:37:31;;;;;;;6.78;2.63;;;;;;;24.31;66.82;100519.91;2102711;28;20135;-74
2022/07/01 01:38:53;;;;;;;9.13;2.40;;;;;;;24.32;66.66;100530.66;2102777;28;20173;-74
2022/07/01 01:40:17;;;;;;;10.43;2.55;;;;;;;24.33;66.62;100534.22;2088564;28;20077;-73
2022/07/01 01:41:40;;;;;;;6.43;2.35;;;;;;;24.32;66.77;100522.56;2094842;28;20048;-74
2022/07/01 01:43:01;;;;;;;6.25;1.95;;;;;;;24.31;66.78;100528.91;2095049;28;20171;-74
2022/07/01 01:44:23;;;;;;;8.38;2.58;;;;;;;24.31;66.74;100528.00;2102139;28;20382;-74
2022/07/01 01:45:46;;;;;;;6.70;2.20;;;;;;;24.31;66.72;100528.91;2102658;28;20047;-74
2022/07/01 01:47:08;;;;;;;7.82;2.10;;;;;;;24.34;66.55;100533.28;2102731;28;20075;-74
2022/07/01 01:48:31;;;;;;;8.57;2.35;;;;;;;24.32;66.55;100530.66;2094460;28;20048;-74
2022/07/01 01:49:53;;;;;;;5.72;2.55;;;;;;;24.31;66.52;100528.91;2094668;28;20440;-73
2022/07/01 01:51:18;;;;;;;7.97;2.38;;;;;;;24.34;66.44;100525.19;2100525;28;20054;-73
2022/07/01 01:52:42;;;;;;;5.32;2.08;;;;;;;24.35;66.23;100535.91;2096974;28;20138;-74
2022/07/01 01:54:05;;;;;;;4.05;2.22;;;;;;;24.37;66.38;100531.31;2086595;28;20045;-74
2022/07/01 01:55:27;;;;;;;7.72;2.20;;;;;;;24.39;66.22;100533.94;2091461;28;20075;-73
2022/07/01 01:56:49;;;;;;;5.20;2.08;;;;;;;24.38;65.91;100530.38;2096906;28;20563;-74
2022/07/01 01:58:11;;;;;;;6.88;1.98;;;;;;;24.34;66.26;100530.59;2102400;28;20044;-74
2022/07/01 01:59:33;;;;;;;7.53;2.20;;;;;;;24.32;66.10;100527.06;2102593;28;20101;-74
2022/07/01 02:00:55;;;;;;;6.00;2.25;;;;;;;24.30;66.41;100526.25;2101287;28;20513;-74
2022/07/01 02:02:18;;;;;;;7.45;2.50;;;;;;;24.27;66.41;100530.00;2101548;28;20039;-73
2022/07/01 02:03:41;;;;;;;3.95;2.17;;;;;;;24.25;66.72;100531.88;2097198;28;20059;-74
2022/07/01 02:05:05;;;;;;;4.80;2.08;;;;;;;24.22;66.57;100530.16;2102641;28;20051;-74
2022/07/01 02:06:29;;;;;;;5.00;2.08;;;;;;;24.22;67.03;100529.28;2102695;28;20036;-74
2022/07/01 02:07:52;;;;;;;8.55;2.40;;;;;;;24.24;66.85;100540.91;2096804;28;20094;-74
2022/07/01 02:09:14;;;;;;;11.73;2.88;;;;;;;24.20;67.13;100547.38;2099981;28;20143;-73
2022/07/01 02:10:37;;;;;;;6.15;2.08;;;;;;;24.22;66.89;100538.25;2093934;28;20037;-74
2022/07/01 02:11:58;;;;;;;8.27;2.40;;;;;;;24.25;66.48;100539.09;2093830;28;20082;-73
2022/07/01 02:13:20;;;;;;;9.80;2.97;;;;;;;24.27;66.54;100534.50;2094342;28;20037;-74
2022/07/01 02:14:42;;;;;;;3.80;1.98;;;;;;;24.25;66.44;100534.56;2101115;28;20104;-73
2022/07/01 02:16:05;;;;;;;10.48;2.50;;;;;;;24.23;66.58;100537.31;2102270;28;20056;-73
2022/07/01 02:17:28;;;;;;;11.77;2.38;;;;;;;24.25;66.52;100542.66;2102690;28;20101;-74
2022/07/01 02:18:50;;;;;;;6.68;2.38;;;;;;;24.29;66.37;100535.28;2102279;28;20090;-73
2022/07/01 02:20:14;;;;;;;7.13;2.38;;;;;;;24.31;66.14;100541.50;2094001;28;20071;-74
2022/07/01 02:21:38;;;;;;;5.88;1.90;;;;;;;24.32;65.99;100549.53;2101869;28;20036;-74
2022/07/01 02:23:00;;;;;;;5.93;1.98;;;;;;;24.28;66.28;100539.84;2102359;28;20044;-74
2022/07/01 02:24:23;;;;;;;8.50;2.65;;;;;;;24.27;66.43;100540.78;2102398;28;20389;-74
2022/07/01 02:25:46;;;;;;;9.15;2.35;;;;;;;24.27;66.52;100548.00;2094291;28;20044;-73
2022/07/01 02:27:09;;;;;;;8.07;4.28;;;;;;;24.29;66.33;100546.09;2099964;28;20066;-73
2022/07/01 02:28:31;;;;;;;4.93;2.13;;;;;;;24.29;66.26;100546.09;2102294;28;20142;-74
2022/07/01 02:29:54;;;;;;;6.35;2.03;;;;;;;24.27;66.61;100546.19;2102624;28;20040;-74
2022/07/01 02:31:16;;;;;;;6.32;2.40;;;;;;;24.27;66.56;100548.00;2093167;28;20044;-74
2022/07/01 02:32:38;;;;;;;7.93;2.10;;;;;;;24.26;66.58;100549.81;2093612;28;20178;-74
2022/07/01 02:34:01;;;;;;;5.30;2.25;;;;;;;24.25;66.48;100536.38;2094230;28;20071;-74
2022/07/01 02:35:22;;;;;;;5.53;1.65;;;;;;;24.27;66.50;100548.00;2093874;28;20132;-73
2022/07/01 02:36:46;;;;;;;12.77;2.67;;;;;;;24.25;66.77;100552.56;2085529;28;20041;-73
2022/07/01 02:38:08;;;;;;;5.40;2.35;;;;;;;24.27;66.53;100540.78;2095183;28;20041;-74
2022/07/01 02:39:31;;;;;;;4.43;2.25;;;;;;;24.28;66.22;100549.75;2104330;28;20143;-74
2022/07/01 02:40:53;;;;;;;8.27;2.35;;;;;;;24.21;66.21;100554.53;2110208;28;20059;-73
2022/07/01 02:42:25;;;;;;;5.43;2.10;;;;;;;24.20;66.57;100559.06;2105043;28;20143;-73
2022/07/01 02:43:47;;;;;;;7.95;2.80;;;;;;;24.19;66.51;100551.91;2103702;28;20132;-73
2022/07/01 02:45:09;;;;;;;7.90;2.45;;;;;;;24.21;66.58;100547.34;2102015;28;20080;-74
2022/07/01 02:46:31;;;;;;;6.00;2.20;;;;;;;24.26;66.19;100557.91;2093613;28;20051;-74
2022/07/01 02:47:54;;;;;;;4.55;2.38;;;;;;;24.23;66.33;100544.53;2102226;28;20134;-73
2022/07/01 02:49:16;;;;;;;5.57;1.70;;;;;;;24.23;66.66;100544.53;2102096;28;20062;-74
2022/07/01 02:50:38;;;;;;;6.72;2.10;;;;;;;24.23;66.67;100555.34;2101966;28;20048;-74
2022/07/01 02:52:01;;;;;;;7.90;2.63;;;;;;;24.26;66.67;100559.72;2096565;28;20053;-74
2022/07/01 02:53:24;;;;;;;7.18;2.40;;;;;;;24.28;66.41;100555.16;2093761;28;20044;-73
2022/07/01 02:54:46;;;;;;;9.98;2.30;;;;;;;24.28;66.32;100553.34;2093628;28;20595;-74
2022/07/01 02:56:08;;;;;;;5.75;1.83;;;;;;;24.23;66.38;100558.03;2093796;28;20430;-74
2022/07/01 02:57:31;;;;;;;5.38;2.55;;;;;;;24.22;66.24;100556.28;2093717;28;20478;-74
2022/07/01 02:58:54;;;;;;;5.13;2.00;;;;;;;24.19;66.60;100554.59;2094112;28;20076;-74
2022/07/01 03:00:16;;;;;;;8.80;2.60;;;;;;;24.19;66.67;100556.44;2085585;28;20044;-74
2022/07/01 03:01:38;;;;;;;;;;;;;;;24.18;66.66;100557.31;2091248;28;20066;-74
2022/07/01 03:03:00;;;;;;;7.78;3.08;;;;;;;24.15;66.92;100549.38;2098656;28;19927;-73
2022/07/01 03:04:22;;;;;;;5.53;2.00;;;;;;;24.16;66.70;100554.69;2102152;28;20175;-73
2022/07/01 03:05:47;;;;;;;6.50;2.47;;;;;;;24.17;66.85;100564.53;2101794;28;20056;-74
2022/07/01 03:07:09;;;;;;;7.07;2.30;;;;;;;24.22;66.70;100557.16;2102474;28;20040;-74
2022/07/01 03:08:32;;;;;;;9.63;2.38;;;;;;;24.21;66.73;100559.94;2101750;28;20054;-74
2022/07/01 03:09:53;;;;;;;6.10;2.35;;;;;;;24.23;66.80;100563.44;2093893;28;20076;-74
2022/07/01 03:11:16;;;;;;;7.03;2.10;;;;;;;24.25;66.69;100555.28;2098307;28;20056;-74
2022/07/01 03:12:38;;;;;;;8.90;1.90;;;;;;;24.27;66.40;100558.78;2101335;28;20082;-74
2022/07/01 03:14:01;;;;;;;6.40;2.15;;;;;;;24.27;66.44;100553.41;2093981;28;20060;-74
2022/07/01 03:15:24;;;;;;;12.65;2.25;;;;;;;24.28;66.33;100564.13;2094631;28;20131;-73
2022/07/01 03:16:47;;;;;;;7.18;2.63;;;;;;;24.30;66.58;100564.91;2093634;28;20075;-74
2022/07/01 03:18:09;;;;;;;3.60;1.95;;;;;;;24.32;66.40;100570.25;2099818;28;20051;-74
2022/07/01 03:19:30;;;;;;;5.20;2.15;;;;;;;24.35;66.19;100560.19;2094819;28;20517;-74
2022/07/01 03:20:53;;;;;;;6.07;2.28;;;;;;;24.36;66.48;100552.97;2100661;28;20044;-73
2022/07/01 03:22:16;;;;;;;7.93;2.33;;;;;;;24.37;66.73;100552.91;2092989;28;20059;-74
2022/07/01 03:23:39;;;;;;;6.80;2.10;;;;;;;24.38;66.44;100564.59;2098839;28;20044;-73
2022/07/01 03:25:02;;;;;;;7.82;2.28;;;;;;;24.45;66.58;100564.25;2101086;28;20098;-73
2022/07/01 03:26:25;;;;;;;5.80;2.65;;;;;;;24.52;66.30;100568.41;2101738;28;20104;-74
2022/07/01 03:27:47;;;;;;;4.45;1.98;;;;;;;24.58;65.90;100567.25;2100766;28;20056;-74
2022/07/01 03:29:10;;;;;;;3.75;1.90;;;;;;;24.65;65.98;100573.25;2100709;28;20084;-73
2022/07/01 03:30:33;;;;;;;6.80;2.40;;;;;;;24.68;65.71;100571.28;2100946;28;20151;-73
2022/07/01 03:31:54;;;;;;;6.18;2.17;;;;;;;24.74;65.79;100576.44;2096303;28;20045;-74
2022/07/01 03:33:16;;;;;;;6.22;1.88;;;;;;;24.77;65.68;100572.69;2101534;28;20784;-74
2022/07/01 03:34:38;;;;;;;6.88;2.13;;;;;;;24.81;65.52;100582.44;2102058;28;20044;-74
2022/07/01 03:36:01;;;;;;;10.27;2.78;;;;;;;24.83;65.76;100586.78;2101511;28;20052;-74
2022/07/01 03:37:25;;;;;;;8.93;2.35;;;;;;;24.90;65.49;100574.78;2095869;28;20097;-73
2022/07/01 03:38:48;;;;;;;9.82;2.65;;;;;;;24.94;65.07;100573.69;2093813;28;20449;-74
2022/07/01 03:40:10;;;;;;;5.85;2.10;;;;;;;24.99;65.07;100577.09;2102109;28;20047;-74
2022/07/01 03:41:33;;;;;;;5.55;2.63;;;;;;;25.05;64.89;100594.81;2101987;28;20052;-73
2022/07/01 03:42:54;;;;;;;4.18;1.92;;;;;;;25.13;64.90;100591.78;2104721;28;20085;-73
2022/07/01 03:44:17;;;;;;;7.03;2.28;;;;;;;25.22;64.83;100586.78;2093443;28;20054;-73
2022/07/01 03:45:40;;;;;;;8.02;2.28;;;;;;;25.29;64.23;100588.25;2099095;28;20059;-73
2022/07/01 03:47:02;;;;;;;5.97;1.83;;;;;;;25.35;63.91;100582.53;2101994;28;20375;-73
2022/07/01 03:48:25;;;;;;;5.00;1.77;;;;;;;25.42;63.89;100591.25;2102072;28;20090;-74
2022/07/01 03:49:48;;;;;;;7.97;2.72;;;;;;;25.50;63.54;100586.34;2101083;28;20052;-73
2022/07/01 03:51:10;;;;;;;5.95;2.10;;;;;;;25.60;63.57;100594.94;2093710;28;20049;-74
2022/07/01 03:52:34;;;;;;;7.32;2.00;;;;;;;25.72;63.00;100597.91;2095343;28;20040;-73
2022/07/01 03:55:35;;;;;;;5.63;1.98;;;;;;;25.96;62.02;100594.91;2097941;28;20049;-74
2022/07/01 03:56:58;;;;;;;6.40;1.92;;;;;;;26.06;61.78;100598.88;2095220;28;20532;-74
2022/07/01 03:58:21;;;;;;;4.50;1.98;;;;;;;26.17;61.63;100596.53;2095297;28;20076;-74
2022/07/01 03:59:42;;;;;;;5.57;1.77;;;;;;;26.27;61.52;100607.75;2095238;28;20079;-74
2022/07/01 04:01:05;;;;;;;4.60;1.67;;;;;;;26.35;61.63;100602.84;2102551;28;20058;-74
2022/07/01 04:02:27;;;;;;;3.20;1.52;;;;;;;26.41;61.27;100611.53;2095241;28;20158;-73
2022/07/01 04:03:50;;;;;;;4.40;1.67;;;;;;;26.49;61.10;100609.28;2103448;28;20050;-74
2022/07/01 04:05:12;;;;;;;4.75;1.90;;;;;;;26.57;60.83;100607.06;2103573;28;20513;-74
2022/07/01 04:06:35;;;;;;;8.18;1.80;;;;;;;26.67;60.61;100618.25;2103608;28;20044;-74
2022/07/01 04:07:58;;;;;;;4.43;1.85;;;;;;;26.79;60.45;100616.72;2103624;28;20085;-74
2022/07/01 04:09:21;;;;;;;3.42;1.85;;;;;;;26.90;60.26;100608.94;2103661;28;20094;-73
2022/07/01 04:10:44;;;;;;;5.30;1.73;;;;;;;27.01;59.91;100619.19;2101602;28;20075;-74
2022/07/01 04:12:08;;;;;;;9.93;2.20;;;;;;;27.12;59.68;100614.03;2103073;28;20163;-74
2022/07/01 04:13:29;;;;;;;6.13;2.00;;;;;;;27.17;59.15;100607.44;2103544;28;20032;-74
2022/07/01 04:14:52;;;;;;;5.82;1.85;;;;;;;27.21;59.18;100616.25;2095062;28;20040;-73
2022/07/01 04:16:13;;;;;;;3.75;1.60;;;;;;;27.20;58.99;100620.81;2103529;28;20444;-74
2022/07/01 04:17:36;;;;;;;3.80;1.90;;;;;;;27.26;58.82;100628.59;2103324;28;20048;-74
2022/07/01 04:18:59;;;;;;;12.18;3.45;;;;;;;27.30;58.50;100623.91;2105688;28;20068;-73
2022/07/01 04:20:22;;;;;;;4.38;1.48;;;;;;;27.28;58.40;100631.22;2103338;28;20052;-74
2022/07/01 04:23:24;;;;;;;9.75;1.90;;;;;;;27.51;58.14;100638.06;2105731;28;20059;-74
2022/07/01 04:24:47;;;;;;;6.60;2.47;;;;;;;27.61;57.71;100637.50;2103592;28;20036;-74
2022/07/01 04:26:09;;;;;;;5.13;1.90;;;;;;;27.78;57.29;100641.94;2103277;28;20570;-74
2022/07/01 04:27:32;;;;;;;8.98;2.20;;;;;;;27.97;56.94;100636.31;2103143;28;20047;-75
2022/07/01 04:28:54;;;;;;;8.93;2.05;;;;;;;28.09;56.49;100641.06;2095090;28;20231;-74
2022/07/01 04:30:17;;;;;;;7.28;1.65;;;;;;;27.99;56.32;100635.28;2099689;28;20139;-74
2022/07/01 04:31:38;;;;;;;7.28;1.67;;;;;;;27.99;56.41;100645.25;2103260;28;20060;-74
2022/07/01 04:33:01;;;;;;;3.10;1.33;;;;;;;27.96;56.48;100640.03;2095021;28;20040;-74
2022/07/01 04:34:23;;;;;;;4.97;1.20;;;;;;;27.83;56.54;100641.72;2100275;28;20102;-74
2022/07/01 04:35:45;;;;;;;8.68;1.98;;;;;;;27.66;56.87;100646.25;2110203;28;20057;-74
2022/07/01 04:37:07;;;;;;;6.90;1.83;;;;;;;27.55;57.13;100639.69;2102619;28;20127;-73
2022/07/01 04:38:30;;;;;;;2.95;1.30;;;;;;;27.48;57.21;100639.13;2101976;28;20457;-72
2022/07/01 04:39:52;;;;;;;4.35;1.75;;;;;;;27.34;57.57;100642.59;2100865;28;20048;-73
2022/07/01 04:42:54;;;;;;;10.57;1.88;;;;;;;27.21;57.88;100638.81;2097089;28;20574;-73
2022/07/01 04:44:15;;;;;;;4.35;1.67;;;;;;;27.26;57.98;100649.41;2094521;28;20564;-73
2022/07/01 04:45:38;;;;;;;4.68;1.77;;;;;;;27.47;57.41;100647.34;2097215;28;20048;-73
2022/07/01 04:47:00;;;;;;;6.13;1.80;;;;;;;27.56;57.09;100647.75;2091726;28;20131;-73
2022/07/01 04:48:23;;;;;;;6.90;2.42;;;;;;;27.91;56.59;100645.72;2108305;28;20044;-73
2022/07/01 04:49:45;;;;;;;6.47;1.77;;;;;;;28.07;55.84;100642.97;2106077;28;20040;-73
2022/07/01 04:51:06;;;;;;;4.47;1.83;;;;;;;28.05;56.06;100647.63;2103089;28;20148;-74
2022/07/01 04:52:29;;;;;;;4.45;2.55;;;;;;;28.01;55.93;100654.19;2101434;28;20051;-73
2022/07/01 04:53:55;;;;;;;7.43;2.05;;;;;;;28.41;55.42;100648.19;2103470;28;20056;-73
2022/07/01 04:55:18;;;;;;;8.15;1.80;;;;;;;28.71;54.23;100653.59;2101441;28;20050;-73
2022/07/01 04:56:39;;;;;;;7.43;1.95;;;;;;;28.66;54.44;100647.56;2089074;28;20138;-73
2022/07/01 04:58:02;;;;;;;10.95;2.00;;;;;;;29.09;53.62;100653.97;2092443;28;20048;-74
2022/07/01 04:59:24;;;;;;;8.43;1.80;;;;;;;28.97;53.51;100652.00;2094807;28;20582;-74
2022/07/01 05:00:48;;;;;;;7.45;1.95;;;;;;;29.23;53.09;100656.69;2096385;28;20072;-74
2022/07/01 05:02:11;;;;;;;6.20;1.58;;;;;;;29.73;51.78;100657.16;2102987;28;20061;-74
2022/07/01 05:03:32;;;;;;;8.00;1.83;;;;;;;29.58;52.09;100656.31;2102953;28;20036;-74
2022/07/01 05:04:55;;;;;;;5.43;2.38;;;;;;;29.75;52.09;100658.78;2103060;28;20052;-74
2022/07/01 05:06:16;;;;;;;3.85;1.98;;;;;;;30.21;50.58;100656.63;2103150;28;20567;-74
2022/07/01 05:07:38;;;;;;;7.72;1.80;;;;;;;30.65;49.75;100652.75;2092602;28;20059;-73
2022/07/01 05:09:05;;;;;;;3.70;1.55;;;;;;;31.08;48.97;100651.50;2100556;28;20481;-74
2022/07/01 05:10:28;;;;;;;5.05;1.63;;;;;;;31.40;48.17;100654.63;2102254;28;20052;-73
2022/07/01 05:11:51;;;;;;;4.07;1.70;;;;;;;31.22;48.08;100659.56;2103094;28;20044;-74
2022/07/01 05:13:12;;;;;;;6.10;2.25;;;;;;;31.53;47.57;100652.75;2105918;28;20138;-74
2022/07/01 05:14:34;;;;;;;6.78;2.47;;;;;;;31.96;46.79;100663.25;2105443;28;20048;-74
2022/07/01 05:15:56;;;;;;;7.07;1.67;;;;;;;32.34;45.74;100654.91;2104818;28;20071;-74
2022/07/01 05:17:18;;;;;;;5.63;1.63;;;;;;;32.62;45.30;100650.91;2097451;28;20139;-73
2022/07/01 05:22:07;;;;;;;6.40;1.52;;;;;;;32.98;44.00;100649.91;2088206;28;20141;-74
2022/07/01 05:23:30;;;;;;;5.88;1.60;;;;;;;33.26;43.58;100657.69;2102909;28;20036;-74
2022/07/01 05:24:54;;;;;;;7.32;1.45;;;;;;;33.66;42.75;100657.16;2105762;28;20048;-74
2022/07/01 05:26:17;;;;;;;5.00;1.50;;;;;;;33.85;42.12;100647.31;2100321;28;20554;-74
2022/07/01 05:27:39;;;;;;;8.13;1.80;;;;;;;33.95;42.09;100653.75;2103096;28;20052;-73
2022/07/01 05:29:00;;;;;;;7.88;2.10;;;;;;;34.18;41.56;100645.50;2102585;28;20143;-74
2022/07/01 05:30:23;;;;;;;3.80;1.48;;;;;;;34.33;41.21;100646.97;2101616;28;20571;-73
2022/07/01 05:31:44;;;;;;;6.25;1.75;;;;;;;34.47;41.23;100646.63;2096221;28;20094;-75
2022/07/01 05:33:07;;;;;;;5.28;1.48;;;;;;;34.60;40.68;100647.31;2099572;28;20509;-75
2022/07/01 05:34:30;;;;;;;4.70;1.50;;;;;;;34.63;40.44;100647.06;2105250;28;20074;-74
2022/07/01 05:35:51;;;;;;;7.38;1.40;;;;;;;34.74;40.39;100657.97;2094250;28;20805;-74
2022/07/01 05:37:16;;;;;;;5.18;1.67;;;;;;;34.92;39.87;100646.41;2099876;28;20048;-74
2022/07/01 05:38:38;;;;;;;4.20;1.48;;;;;;;35.03;39.53;100649.06;2103029;28;20063;-74
2022/07/01 05:40:02;;;;;;;4.05;1.65;;;;;;;35.16;39.07;100641.50;2101161;28;20117;-74
2022/07/01 05:41:23;;;;;;;5.43;1.60;;;;;;;35.14;39.02;100648.97;2100210;28;20040;-74
2022/07/01 05:42:45;;;;;;;5.57;1.30;;;;;;;35.23;38.87;100650.09;2105477;28;20052;-74
2022/07/01 05:44:08;;;;;;;5.55;1.42;;;;;;;35.29;38.72;100653.16;2102348;28;20113;-74
2022/07/01 05:45:30;;;;;;;10.27;1.92;;;;;;;35.22;38.56;100651.97;2100072;28;20048;-74
2022/07/01 05:46:53;;;;;;;7.55;1.40;;;;;;;35.21;38.12;100647.47;2091426;28;20090;-74
2022/07/01 05:48:14;;;;;;;5.82;1.92;;;;;;;35.26;37.82;100655.28;2102871;28;20147;-74
2022/07/01 05:49:36;;;;;;;5.90;1.80;;;;;;;35.25;37.87;100659.06;2088447;28;20051;-74
2022/07/01 05:50:58;;;;;;;7.53;1.77;;;;;;;35.32;37.68;100657.47;2094951;28;20039;-74
2022/07/01 05:52:20;;;;;;;3.17;1.10;;;;;;;35.44;37.39;100665.50;2102855;28;20044;-74
2022/07/01 05:53:43;;;;;;;5.28;1.45;;;;;;;35.44;37.32;100662.75;2105085;28;20572;-74
2022/07/01 05:55:08;;;;;;;7.40;2.20;;;;;;;35.64;37.27;100668.34;2102076;28;20036;-74
2022/07/01 05:56:30;;;;;;;3.80;1.50;;;;;;;35.66;36.79;100666.28;2094426;28;20135;-74
2022/07/01 05:57:51;;;;;;;3.42;1.60;;;;;;;35.52;36.94;100668.41;2101615;28;20040;-74
2022/07/01 05:59:14;;;;;;;6.38;1.45;;;;;;;35.51;37.00;100669.41;2097159;28;20052;-74
2022/07/01 06:00:37;;;;;;;3.22;1.65;;;;;;;35.63;36.84;100678.44;2096672;28;20130;-74
2022/07/01 06:02:00;;;;;;;7.90;1.77;;;;;;;35.75;36.56;100673.75;2102642;28;20048;-74
2022/07/01 06:03:22;;;;;;;5.35;1.40;;;;;;;35.88;36.23;100677.97;2093996;28;20040;-74
2022/07/01 06:04:44;;;;;;;6.55;1.67;;;;;;;35.93;36.42;100674.81;2094267;28;20076;-73
2022/07/01 06:06:06;;;;;;;5.10;1.63;;;;;;;35.91;36.41;100677.69;2096825;28;20549;-74
2022/07/01 06:07:28;;;;;;;4.45;1.50;;;;;;;35.83;36.48;100662.94;2102863;28;20052;-73
2022/07/01 06:08:51;;;;;;;5.53;1.45;;;;;;;35.67;36.61;100670.78;2102522;28;20044;-74
2022/07/01 06:10:13;;;;;;;6.20;1.73;;;;;;;35.75;36.48;100673.75;2100565;28;20128;-74
2022/07/01 06:11:36;;;;;;;7.10;1.67;;;;;;;35.79;36.50;100680.69;2094277;28;20049;-74
2022/07/01 06:12:57;;;;;;;5.38;1.80;;;;;;;35.75;36.64;100673.75;2096185;28;20084;-74
2022/07/01 06:14:20;;;;;;;5.05;1.60;;;;;;;35.74;36.86;100675.63;2101574;28;20063;-74
2022/07/01 06:15:42;;;;;;;6.53;1.40;;;;;;;35.85;36.85;100681.00;2102504;28;20090;-74
2022/07/01 06:17:05;;;;;;;7.82;2.20;;;;;;;35.97;36.82;100682.63;2101448;28;20040;-74
2022/07/01 06:18:28;;;;;;;7.63;2.03;;;;;;;36.04;36.70;100677.41;2101242;28;20804;-74
2022/07/01 06:19:50;;;;;;;6.25;1.73;;;;;;;36.25;36.23;100680.09;2094142;28;20494;-73
2022/07/01 06:21:14;;;;;;;6.10;1.38;;;;;;;36.27;36.08;100678.94;2099543;28;20119;-74
2022/07/01 06:22:36;;;;;;;7.85;2.05;;;;;;;36.25;35.70;100677.34;2102944;28;20165;-74
2022/07/01 06:23:59;;;;;;;5.85;1.27;;;;;;;36.18;35.85;100676.16;2102436;28;20044;-74
2022/07/01 06:25:23;;;;;;;8.02;1.95;;;;;;;36.24;35.81;100665.47;2093827;28;20383;-73
2022/07/01 06:26:46;;;;;;;6.10;1.70;;;;;;;36.37;35.44;100675.31;2097862;28;20048;-74
2022/07/01 06:28:09;;;;;;;6.28;1.65;;;;;;;36.36;35.11;100671.72;2094456;28;20106;-74
2022/07/01 06:29:31;;;;;;;4.05;2.13;;;;;;;36.21;35.19;100684.16;2093916;28;20041;-74
2022/07/01 06:30:55;;;;;;;5.50;1.42;;;;;;;36.14;35.24;100672.81;2094110;28;20545;-74
2022/07/01 06:32:17;;;;;;;8.75;1.75;;;;;;;36.03;35.15;100681.22;2094004;28;20101;-74